Seal Rocks - Between Montague And Hinchinbrook Islands, Ak (46061) Wave Buoy

5:50am - Sat 28th Nov 2015 All times are AKST. -9 hours from GMT.

  • Sig Wave height 7.2ft
  • Swell Direction
  • Peak Period 12s
  • Average Period 8s
  • Wind
    20mph, 29mph gusts
  • Sea Temp 46°f
  • Air Temp 46°f
  • Sea Pressure 1001.6mb
  • Seal Rocks - Between Montague And Hinchinbrook Islands, Ak
  • Seal Rocks - Between Montague And Hinchinbrook Islands, Ak

More Historic Weather Station data

Upgrade to MSW Pro to gain access to the past 30 days of data for over 8000 Wavebouys and Weather Stations around the globe.

Join Pro

Comparision Forecast

View Surf forecast
Sat 11/28 5:50am 7ft 12s 8s 20 29 mph 1001.6mb 46f 46f
4:50am 7.5ft 13s 8s 22 25 mph 1000.6mb 46f 46f
3:50am 7.5ft 12s 9s 7 16 mph 999.7mb 46f 42f
2:50am 7ft 13s 8s 11 13 mph 998.5mb 47f 40f
1:50am 8ft 12s 8s 7 11 mph 997.4mb 46f 41f
12:50am 9.5ft 12s 8s 2 4 mph 997mb 46f 41f
Fri 11/27 11:50pm 10ft 9s 8s 13 20 mph 997mb 46f 42f
10:50pm 10ft 11s 8s 18 25 mph 996.8mb 45f 45f
9:50pm 10.5ft 11s 8s 16 20 mph 997.4mb 45f 45f
8:50pm 10ft 12s 8s 20 25 mph 997.7mb 45f 46f
7:50pm 10ft 11s 8s 20 25 mph 998.2mb 46f 46f
6:50pm 10ft 10s 8s 13 18 mph 998.7mb 46f 45f
5:50pm 9.5ft 10s 8s 9 13 mph 998.7mb 45f 43f
4:50pm 10ft 11s 8s 11 13 mph 997.6mb 45f 42f
3:50pm 9.5ft 11s 8s 22 27 mph 997mb 46f 43f
2:50pm 10ft 10s 7s 29 36 mph 996.7mb 47f 46f
1:50pm 12ft 12s 8s 27 34 mph 998mb 47f 45f
12:50pm 11ft 10s 7s 29 36 mph 999.1mb 47f 46f
11:50am 11ft 12s 7s 36 47 mph 999.9mb 47f 45f
10:50am 11ft 11s 7s 36 45 mph 1000.4mb 47f 46f
9:50am 10.5ft 10s 8s 34 43 mph 1000.5mb 44f 46f
8:50am 13ft 10s 7s 29 36 mph 1000.8mb 45f 46f
7:50am 13ft 10s 7s 43 54 mph 999.7mb 45f 44f
6:50am 15ft 10s 7s 45 54 mph 1000mb 45f 44f
5:50am 13.5ft 10s 7s 45 58 mph 1001mb 45f 44f
4:50am 13ft 9s 7s 45 56 mph 1001.6mb 45f 45f
3:50am 14ft 9s 7s 47 56 mph 1002.7mb 47f 45f
2:50am 12.5ft 8s 7s 45 54 mph 1003.7mb 47f 46f
1:50am 12ft 9s 7s 40 54 mph 1005.1mb 47f 46f
12:50am 13ft 8s 7s 40 47 mph 1005.2mb 46f 47f
Thu 11/26 11:50pm 10ft 8s 6s 38 47 mph 1005.9mb 46f 47f
10:50pm 11ft 9s 7s 38 47 mph 1006.4mb 46f 42f
9:50pm 11ft 9s 6s 38 51 mph 1006.9mb 46f 42f
8:50pm 10ft 8s 6s 40 49 mph 1007.1mb 46f 41f
7:50pm 11.5ft 9s 7s 36 47 mph 1007.9mb 46f 43f
6:50pm 11ft 13s 7s 34 40 mph 1008.5mb 45f 43f
5:50pm 9.5ft 10s 7s 31 40 mph 1007.8mb 45f 43f
4:50pm 9ft 13s 8s 29 36 mph 1008.1mb 45f 43f
3:50pm 10.5ft 12s 9s 27 31 mph 1007.9mb 44f 42f
2:50pm 11.5ft 13s 9s 13 16 mph 1007.9mb 47f 44f
1:50pm 14ft 14s 9s 16 18 mph 1007.2mb 47f 43f
12:50pm 14.5ft 13s 9s 13 18 mph 1006.2mb 46f 45f
11:50am 14.5ft 12s 9s 20 25 mph 1004.9mb 46f 45f
10:50am 14ft 11s 8s 20 27 mph 1003.6mb 46f 45f
9:50am 12.5ft 13s 9s 22 27 mph 1002.5mb 46f 46f
8:50am 12ft 13s 8s 16 22 mph 1002.1mb 43f 46f
7:50am 14ft 14s 8s 29 47 mph 1001.6mb 44f 43f
6:50am 13.5ft 9s 7s 45 56 mph 1000.6mb 44f 41f
5:50am 14.5ft 14s 8s 40 60 mph 1000.9mb 45f 41f
4:50am 15ft 14s 8s 40 51 mph 1001.2mb 46f 42f
3:50am 15.5ft 9s 8s 38 47 mph 1002.1mb 47f 46f
2:50am 15ft 10s 8s 38 47 mph 1002.4mb 47f 46f
1:50am 16.5ft 11s 8s 38 47 mph 1003.2mb 47f 46f
12:50am 15ft 9s 8s 40 49 mph 1003.5mb 46f 45f
Wed 11/25 11:50pm 16ft 9s 8s 40 49 mph 1004.1mb 46f 45f
10:50pm 14.5ft 9s 7s 40 49 mph 1005.3mb 46f 45f
9:50pm 14.5ft 9s 7s 40 49 mph 1006.6mb 46f 44f
8:50pm 15.5ft 9s 7s 40 51 mph 1007.6mb 46f 43f
7:50pm 15ft 9s 7s 40 49 mph 1008.4mb 46f 43f
6:50pm 16.5ft 9s 8s 40 51 mph 1009.4mb 46f 43f
5:50pm 13.5ft 9s 7s 40 51 mph 1010.1mb 46f 44f
4:50pm 12ft 9s 7s 38 47 mph 1011mb 46f 44f
3:50pm 12.5ft 8s 7s 34 43 mph 1011.5mb 46f 45f
2:50pm 10.5ft 8s 7s 34 40 mph 1012.4mb 46f 45f
1:50pm 10ft 8s 6s 34 40 mph 1013.6mb 46f 44f
12:50pm 10ft 7s 6s 31 40 mph 1014.9mb 46f 44f
11:50am 9ft 6s 6s 29 38 mph 1015.7mb 46f 45f
10:50am 9ft 6s 6s 27 34 mph 1016.7mb 46f 44f
9:50am 8.5ft 6s 6s 27 34 mph 1017.7mb 46f 44f
8:50am 8ft 10s 6s 22 29 mph 1018.4mb 46f 44f
7:50am 7.5ft 9s 6s 22 27 mph 1018.9mb 46f 43f
6:50am 7.5ft 10s 6s 29 36 mph 1019.4mb 46f 44f
5:50am 8ft 10s 6s 27 31 mph 1019.8mb 46f 44f
4:50am 8ft 10s 6s 20 25 mph 1020.8mb 46f 43f
3:50am 7.5ft 8s 6s 22 27 mph 1021.1mb 46f 43f
2:50am 7.5ft 9s 6s 22 27 mph 1021.3mb 46f 44f
1:50am 8ft 10s 6s 25 31 mph 1021.4mb 46f 45f
12:50am 8.5ft 9s 6s 25 31 mph 1021.5mb 46f 45f
Tue 11/24 11:50pm 8ft 8s 6s 27 31 mph 1021.8mb 46f 45f
10:50pm 7ft 9s 6s 27 31 mph 1021.9mb 46f 45f
9:50pm 7ft 10s 6s 25 31 mph 1022.1mb 46f 45f
8:50pm 7ft 9s 6s 20 27 mph 1022.3mb 46f 44f
7:50pm 8ft 10s 6s 25 29 mph 1022.3mb 46f 45f
6:50pm 8ft 10s 6s 27 34 mph 1022.4mb 46f 45f
5:50pm 9ft 10s 7s 27 34 mph 1022.6mb 46f 45f
4:50pm 9ft 10s 7s 27 34 mph 1022.7mb 46f 45f
3:50pm 8ft 11s 7s 27 34 mph 1022.5mb 46f 45f